AirNav   SIMCOM
 
 966 users online  

97NY Hunter Mountain Airport
Hunter, New York, USA

GOING TO HUNTER?


FAA INFORMATION EFFECTIVE 20 JULY 2017

Location

FAA Identifier: 97NY
Lat/Long: 42-14-03.3130N / 074-14-15.5160W
42-14.055217N / 074-14.258600W
42.2342536 / -74.2376433
(estimated)
Elevation: 2000 ft. / 610 m (estimated)
Variation: 13W (1985)
From city: 1 mile NW of HUNTER, NY
Time zone: UTC -4 (UTC -5 during Standard Time)
Zip code: 12424

Airport Operations

Airport use: Private use. Permission required prior to landing
Activation date: 07/1980
Control tower: no
ARTCC: BOSTON CENTER
FSS: BURLINGTON FLIGHT SERVICE STATION
Attendance: UNATNDD
Wind indicator: no
Segmented circle: no

Airport Communications

UNICOM: 122.8

Nearby radio navigation aids

VOR radial/distance  VOR name  Freq  Var
DNYr095/32.1DELANCEY VOR/DME112.1011W
ALBr225/36.3ALBANY VORTAC115.3013W
IGNr343/38.8KINGSTON VOR/DME117.6012W
PWLr326/39.8PAWLING VOR/DME114.3012W

 
NDB name  Hdg/Dist  Freq  Var  ID
PHILMONT280/22.927213WPFH .--. ..-. ....
GREAT BARRINGTON289/37.239514WGBR --. -... .-.
HUNTER214/39.635614WHEU .... . ..-

Airport Services

Parking: tiedowns

Runway Information

Runway N/S

Dimensions: 2550 x 75 ft. / 777 x 23 m
Surface: gravel, in good condition
RUNWAY N  RUNWAY S
Traffic pattern: leftleft
Obstructions: 25 ft. tree, 50 ft. from runway, 40 ft. left of centerline, 2:1 slope to clear30 ft. trees, 20 ft. from runway, 75 ft. right of centerline

Airport Ownership and Management from official FAA records

Ownership: Privately-owned
Owner: SHEEPSKIN HILLS CORPORATION
ROUTE 296
JEWETT, NY 12442
Phone 518-263-4268
Manager: CHARLES B. SLUTZKY
AIRPORT ROAD ROUTE 296
JEWETT, NY 12442
Phone 518-263-4268

Airport Operational Statistics

Aircraft based on the field: 1
Ultralights: 1
    
Aircraft operations: avg 42/month *
60% local general aviation
40% transient general aviation
* for 12-month period ending 07 June 1990

Additional Remarks

RWY N SLOPES UPHILL.

Instrument Procedures

There are no published instrument procedures at 97NY.

Some nearby airports with instrument procedures:

20N - Kingston-Ulster Airport (19 nm SE)
1B1 - Columbia County Airport (24 nm E)
4B0 - South Albany Airport (27 nm NE)
N89 - Joseph Y Resnick Airport (31 nm S)
KALB - Albany International Airport (36 nm NE)
 
Loc | Ops | Rwys | IFR | FBO | Links
Com | Nav | Svcs | Stats | Notes


 
Area around 97NY (Hunter Mountain Airport)
 
Road maps at: MapQuest Bing Google
 
Aerial photo
WARNING: Photo may not be current or correct
Aerial photo of 97NY (Hunter Mountain Airport)
Taken in May 2009

Do you have a better or more recent aerial photo of Hunter Mountain Airport that you would like to share? If so, please send us your photo.

 
Sectional chart

 
Airport distance calculator
Flying to Hunter Mountain Airport? Find the distance to fly.

From to 97NY

Sunrise and sunset
Times for 27-Jul-2017
 Local
(UTC-4)
 Zulu
(UTC)
Morning civil twilight05:1309:13
Sunrise05:4609:46
Sunset20:2100:21
Evening civil twilight20:5300:53

Current date and time
Zulu (UTC)  27-Jul-2017 23:53:56
Local (UTC-4)  27-Jul-2017 19:53:56
 
METAR
KALB 
37nm NE 
272251Z 20006KT 10SM -RA SCT006 SCT025 BKN031 BKN150 22/19 A2987 RMK AO2 RAB51 SLP115 CIG LWR SE-SW PCPN VRY LGT P0000 T02170194
TAF
KALB 
37nm NE 
271734Z 2718/2818 17006KT 5SM -SHRA OVC025 TEMPO 2718/2721 2SM -SHRA BR OVC009 FM272100 21006KT P6SM VCSH OVC030 FM280000 VRB03KT P6SM SCT250 FM280800 00000KT 1SM BR OVC003 FM281200 00000KT P6SM BKN025 FM281600 01004KT P6SM SCT250
KPOU 
39nm SE 
271734Z 2718/2818 20006KT 5SM -SHRA OVC035 FM272200 20004KT P6SM VCSH BKN050 FM280100 20004KT P6SM BKN050 FM280800 01004KT 2SM BR BKN008 FM281200 VRB03KT P6SM SCT250
KPSF 
44nm E 
271734Z 2718/2818 22004KT 5SM -SHRA OVC015 TEMPO 2718/2721 2SM -SHRA BR OVC008 FM272100 22006KT P6SM VCSH OVC010 FM280300 26005KT P6SM SCT030 FM280800 31004KT 1SM BR OVC003 FM281300 VRB03KT P6SM SCT250
KSWF 
45nm S 
271931Z 2720/2824 23007KT P6SM VCSH SCT025 BKN035 TEMPO 2722/2724 5SM -TSRA BR BKN025CB FM280200 20003KT P6SM SCT015 BKN035 FM280500 VRB02KT 5SM BR BKN010 FM281000 02004KT P6SM SCT010 BKN200 FM281500 04005KT P6SM SCT025 BKN200 FM281800 06006KT P6SM SCT050 BKN200 AMD NOT SKED
NOTAMs
Click for the latest NOTAMs
NOTAMs are issued by the DoD/FAA and will open in a separate window not controlled by AirNav.

 

 
 

Would you like to see your business listed on this page?

 If your business provides an interesting product or service to pilots, flight crews, aircraft, or users of the Hunter Mountain Airport, you should consider listing it here.  To start the listing process, click on the button below
 
Add a business
 

Other Pages about Hunter Mountain Airport

Update a link
 
Copyright © AirNav, LLC. All rights reserved. Privacy Policy  Contact